sensor_id;sensor_type;location;lat;lon;timestamp;pressure;altitude;pressure_sealevel;temperature;humidity
50684;BME280;36654;45.042;38.994;2022-10-14T00:00:28;101673.72;;;11.11;61.93
50684;BME280;36654;45.042;38.994;2022-10-14T00:02:54;101659.28;;;10.99;62.14
50684;BME280;36654;45.042;38.994;2022-10-14T00:05:19;101688.75;;;11.12;62.44
50684;BME280;36654;45.042;38.994;2022-10-14T00:07:45;101689.59;;;11.09;62.67
50684;BME280;36654;45.042;38.994;2022-10-14T00:10:11;101633.13;;;10.78;62.66
50684;BME280;36654;45.042;38.994;2022-10-14T00:12:36;101672.53;;;10.99;62.92
50684;BME280;36654;45.042;38.994;2022-10-14T00:15:02;101681.41;;;11.00;62.90
50684;BME280;36654;45.042;38.994;2022-10-14T00:17:28;101669.81;;;10.96;63.16
50684;BME280;36654;45.042;38.994;2022-10-14T00:19:54;101672.31;;;10.90;63.45
50684;BME280;36654;45.042;38.994;2022-10-14T00:22:19;101673.13;;;10.86;63.69
50684;BME280;36654;45.042;38.994;2022-10-14T00:24:45;101693.59;;;10.92;63.80
50684;BME280;36654;45.042;38.994;2022-10-14T00:27:10;101665.69;;;10.73;63.91
50684;BME280;36654;45.042;38.994;2022-10-14T00:29:36;101672.00;;;10.78;64.25
50684;BME280;36654;45.042;38.994;2022-10-14T00:32:01;101616.44;;;10.48;64.31
50684;BME280;36654;45.042;38.994;2022-10-14T00:34:27;101678.31;;;10.82;64.32
50684;BME280;36654;45.042;38.994;2022-10-14T00:36:53;101681.78;;;10.79;64.65
50684;BME280;36654;45.042;38.994;2022-10-14T00:39:18;101661.25;;;10.72;64.63
50684;BME280;36654;45.042;38.994;2022-10-14T00:41:44;101669.41;;;10.79;64.59
50684;BME280;36654;45.042;38.994;2022-10-14T00:46:41;101660.31;;;10.70;64.91
50684;BME280;36654;45.042;38.994;2022-10-14T00:51:33;101661.94;;;10.65;65.21
50684;BME280;36654;45.042;38.994;2022-10-14T00:54:00;101661.91;;;10.63;65.31
50684;BME280;36654;45.042;38.994;2022-10-14T00:56:28;101667.25;;;10.65;65.42
50684;BME280;36654;45.042;38.994;2022-10-14T00:58:54;101667.94;;;10.56;65.58
50684;BME280;36654;45.042;38.994;2022-10-14T01:01:21;101657.13;;;10.48;65.72
50684;BME280;36654;45.042;38.994;2022-10-14T01:03:46;101653.34;;;10.40;65.80
50684;BME280;36654;45.042;38.994;2022-10-14T01:09:12;101672.09;;;10.46;65.91
50684;BME280;36654;45.042;38.994;2022-10-14T01:14:31;101653.06;;;10.29;66.28
50684;BME280;36654;45.042;38.994;2022-10-14T01:25:10;101681.38;;;10.30;66.98
50684;BME280;36654;45.042;38.994;2022-10-14T01:28:02;101678.53;;;10.26;67.04
50684;BME280;36654;45.042;38.994;2022-10-14T01:30:36;101668.56;;;10.15;67.30
50684;BME280;36654;45.042;38.994;2022-10-14T01:33:23;101688.91;;;10.17;67.31
50684;BME280;36654;45.042;38.994;2022-10-14T01:36:36;101676.28;;;10.06;67.41
50684;BME280;36654;45.042;38.994;2022-10-14T01:41:16;101694.81;;;10.06;67.77
50684;BME280;36654;45.042;38.994;2022-10-14T01:43:45;101701.72;;;10.01;67.98
50684;BME280;36654;45.042;38.994;2022-10-14T01:46:13;101706.88;;;9.97;67.85
50684;BME280;36654;45.042;38.994;2022-10-14T01:48:44;101680.84;;;9.82;67.90
50684;BME280;36654;45.042;38.994;2022-10-14T01:51:16;101701.38;;;9.89;67.91
50684;BME280;36654;45.042;38.994;2022-10-14T01:53:48;101700.38;;;9.85;67.82
50684;BME280;36654;45.042;38.994;2022-10-14T01:56:16;101701.03;;;9.78;67.97
50684;BME280;36654;45.042;38.994;2022-10-14T01:58:42;101660.63;;;9.55;68.13
50684;BME280;36654;45.042;38.994;2022-10-14T02:01:10;101703.56;;;9.74;68.33
50684;BME280;36654;45.042;38.994;2022-10-14T02:03:42;101648.84;;;9.44;68.68
50684;BME280;36654;45.042;38.994;2022-10-14T02:06:22;101702.53;;;9.68;68.80
50684;BME280;36654;45.042;38.994;2022-10-14T02:09:21;101694.31;;;9.59;68.78
50684;BME280;36654;45.042;38.994;2022-10-14T02:14:56;101701.38;;;9.60;68.91
50684;BME280;36654;45.042;38.994;2022-10-14T02:20:26;101698.59;;;9.56;68.74
50684;BME280;36654;45.042;38.994;2022-10-14T02:22:57;101681.44;;;9.43;68.60
50684;BME280;36654;45.042;38.994;2022-10-14T02:25:34;101700.19;;;9.49;68.73
50684;BME280;36654;45.042;38.994;2022-10-14T02:28:02;101634.66;;;9.13;68.72
50684;BME280;36654;45.042;38.994;2022-10-14T02:30:31;101686.81;;;9.46;68.80
50684;BME280;36654;45.042;38.994;2022-10-14T02:32:59;101683.09;;;9.39;68.85
50684;BME280;36654;45.042;38.994;2022-10-14T02:35:26;101685.78;;;9.41;68.48
50684;BME280;36654;45.042;38.994;2022-10-14T02:37:54;101686.66;;;9.40;68.41
50684;BME280;36654;45.042;38.994;2022-10-14T02:40:46;101630.97;;;9.08;68.54
50684;BME280;36654;45.042;38.994;2022-10-14T02:43:14;101682.97;;;9.35;68.54
50684;BME280;36654;45.042;38.994;2022-10-14T02:45:41;101650.66;;;9.16;68.52
50684;BME280;36654;45.042;38.994;2022-10-14T02:48:08;101697.06;;;9.34;68.85
50684;BME280;36654;45.042;38.994;2022-10-14T02:50:35;101694.28;;;9.31;68.89
50684;BME280;36654;45.042;38.994;2022-10-14T02:53:00;101681.84;;;9.28;68.88
50684;BME280;36654;45.042;38.994;2022-10-14T02:55:26;101682.78;;;9.28;68.92
50684;BME280;36654;45.042;38.994;2022-10-14T02:57:52;101670.09;;;9.18;68.88
50684;BME280;36654;45.042;38.994;2022-10-14T03:00:18;101679.19;;;9.26;68.99
50684;BME280;36654;45.042;38.994;2022-10-14T03:02:44;101673.78;;;9.23;69.05
50684;BME280;36654;45.042;38.994;2022-10-14T03:05:09;101685.38;;;9.27;68.88
50684;BME280;36654;45.042;38.994;2022-10-14T03:07:35;101675.59;;;9.24;68.80
50684;BME280;36654;45.042;38.994;2022-10-14T03:10:01;101681.75;;;9.25;68.69
50684;BME280;36654;45.042;38.994;2022-10-14T03:12:27;101688.97;;;9.29;68.76
50684;BME280;36654;45.042;38.994;2022-10-14T03:14:53;101676.38;;;9.22;68.79
50684;BME280;36654;45.042;38.994;2022-10-14T03:17:19;101693.25;;;9.25;68.72
50684;BME280;36654;45.042;38.994;2022-10-14T03:19:44;101679.97;;;9.24;68.77
50684;BME280;36654;45.042;38.994;2022-10-14T03:22:10;101678.88;;;9.17;69.04
50684;BME280;36654;45.042;38.994;2022-10-14T03:24:36;101643.00;;;8.98;68.91
50684;BME280;36654;45.042;38.994;2022-10-14T03:27:01;101675.38;;;9.18;69.01
50684;BME280;36654;45.042;38.994;2022-10-14T03:29:27;101680.66;;;9.18;69.61
50684;BME280;36654;45.042;38.994;2022-10-14T03:31:53;101671.69;;;9.13;69.46
50684;BME280;36654;45.042;38.994;2022-10-14T03:34:18;101672.63;;;9.15;69.55
50684;BME280;36654;45.042;38.994;2022-10-14T03:36:44;101678.81;;;9.16;69.54
50684;BME280;36654;45.042;38.994;2022-10-14T03:39:10;101665.41;;;9.10;69.66
50684;BME280;36654;45.042;38.994;2022-10-14T03:41:36;101683.19;;;9.14;69.75
50684;BME280;36654;45.042;38.994;2022-10-14T03:44:02;101650.75;;;8.92;69.63
50684;BME280;36654;45.042;38.994;2022-10-14T03:46:27;101686.88;;;9.19;70.02
50684;BME280;36654;45.042;38.994;2022-10-14T03:48:53;101603.66;;;8.80;69.78
50684;BME280;36654;45.042;38.994;2022-10-14T03:51:19;101692.91;;;9.43;69.87
50684;BME280;36654;45.042;38.994;2022-10-14T03:53:45;101629.09;;;9.33;69.76
50684;BME280;36654;45.042;38.994;2022-10-14T03:56:10;101682.56;;;9.80;69.11
50684;BME280;36654;45.042;38.994;2022-10-14T03:58:36;101678.78;;;10.02;68.59
50684;BME280;36654;45.042;38.994;2022-10-14T04:01:02;101678.47;;;10.23;67.67
50684;BME280;36654;45.042;38.994;2022-10-14T04:03:27;101667.22;;;10.30;66.98
50684;BME280;36654;45.042;38.994;2022-10-14T04:05:53;101681.13;;;10.23;66.68
50684;BME280;36654;45.042;38.994;2022-10-14T04:08:19;101690.47;;;10.08;66.98
50684;BME280;36654;45.042;38.994;2022-10-14T04:10:44;101680.41;;;9.97;67.49
50684;BME280;36654;45.042;38.994;2022-10-14T04:13:10;101686.50;;;9.94;67.21
50684;BME280;36654;45.042;38.994;2022-10-14T04:15:36;101687.13;;;9.85;67.59
50684;BME280;36654;45.042;38.994;2022-10-14T04:18:02;101695.84;;;9.81;67.93
50684;BME280;36654;45.042;38.994;2022-10-14T04:20:28;101707.25;;;9.79;67.99
50684;BME280;36654;45.042;38.994;2022-10-14T04:22:53;101692.13;;;9.75;68.15
50684;BME280;36654;45.042;38.994;2022-10-14T04:25:19;101694.84;;;9.78;67.83
50684;BME280;36654;45.042;38.994;2022-10-14T04:27:45;101702.78;;;9.78;68.21
50684;BME280;36654;45.042;38.994;2022-10-14T04:30:11;101699.25;;;9.77;68.17
50684;BME280;36654;45.042;38.994;2022-10-14T04:32:37;101704.47;;;9.74;68.33
50684;BME280;36654;45.042;38.994;2022-10-14T04:35:03;101704.47;;;9.74;68.28
50684;BME280;36654;45.042;38.994;2022-10-14T04:37:29;101703.47;;;9.70;68.16
50684;BME280;36654;45.042;38.994;2022-10-14T04:39:55;101681.09;;;9.61;68.16
50684;BME280;36654;45.042;38.994;2022-10-14T04:42:20;101714.41;;;9.83;68.01
50684;BME280;36654;45.042;38.994;2022-10-14T04:44:46;101699.34;;;9.80;67.93
50684;BME280;36654;45.042;38.994;2022-10-14T04:47:12;101713.66;;;9.87;68.25
50684;BME280;36654;45.042;38.994;2022-10-14T04:49:37;101696.91;;;9.88;67.85
50684;BME280;36654;45.042;38.994;2022-10-14T04:52:03;101707.69;;;9.94;67.76
50684;BME280;36654;45.042;38.994;2022-10-14T04:54:28;101672.78;;;9.77;67.52
50684;BME280;36654;45.042;38.994;2022-10-14T04:56:55;101697.28;;;10.00;67.34
50684;BME280;36654;45.042;38.994;2022-10-14T04:59:21;101711.47;;;10.02;66.91
50684;BME280;36654;45.042;38.994;2022-10-14T05:01:46;101713.34;;;10.06;66.55
50684;BME280;36654;45.042;38.994;2022-10-14T05:04:12;101709.91;;;10.10;65.93
50684;BME280;36654;45.042;38.994;2022-10-14T05:06:38;101704.72;;;10.13;65.38
50684;BME280;36654;45.042;38.994;2022-10-14T05:09:04;101707.47;;;10.17;64.81
50684;BME280;36654;45.042;38.994;2022-10-14T05:11:30;101703.94;;;10.16;64.58
50684;BME280;36654;45.042;38.994;2022-10-14T05:13:56;101708.56;;;10.25;64.37
50684;BME280;36654;45.042;38.994;2022-10-14T05:16:22;101706.03;;;10.28;63.69
50684;BME280;36654;45.042;38.994;2022-10-14T05:18:47;101707.06;;;10.33;63.30
50684;BME280;36654;45.042;38.994;2022-10-14T05:21:13;101709.75;;;10.34;62.83
50684;BME280;36654;45.042;38.994;2022-10-14T05:23:39;101703.72;;;10.40;61.99
50684;BME280;36654;45.042;38.994;2022-10-14T05:26:04;101710.91;;;10.44;62.05
50684;BME280;36654;45.042;38.994;2022-10-14T05:28:30;101706.56;;;10.48;62.08
50684;BME280;36654;45.042;38.994;2022-10-14T05:30:56;101660.97;;;10.28;61.74
50684;BME280;36654;45.042;38.994;2022-10-14T05:33:21;101703.22;;;10.55;61.70
50684;BME280;36654;45.042;38.994;2022-10-14T05:35:47;101702.50;;;10.61;61.53
50684;BME280;36654;45.042;38.994;2022-10-14T05:38:13;101669.50;;;10.49;61.30
50684;BME280;36654;45.042;38.994;2022-10-14T05:40:39;101700.16;;;10.73;61.26
50684;BME280;36654;45.042;38.994;2022-10-14T05:43:04;101703.00;;;10.79;60.97
50684;BME280;36654;45.042;38.994;2022-10-14T05:45:31;101706.59;;;10.81;60.73
50684;BME280;36654;45.042;38.994;2022-10-14T05:47:56;101665.47;;;10.64;60.28
50684;BME280;36654;45.042;38.994;2022-10-14T05:50:22;101717.50;;;10.93;59.90
50684;BME280;36654;45.042;38.994;2022-10-14T05:52:48;101698.06;;;10.94;59.21
50684;BME280;36654;45.042;38.994;2022-10-14T05:55:13;101702.63;;;11.00;58.75
50684;BME280;36654;45.042;38.994;2022-10-14T05:57:39;101666.00;;;10.85;58.12
50684;BME280;36654;45.042;38.994;2022-10-14T06:00:08;101658.97;;;10.87;57.27
50684;BME280;36654;45.042;38.994;2022-10-14T06:02:34;101687.81;;;11.10;56.50
50684;BME280;36654;45.042;38.994;2022-10-14T06:05:00;101703.81;;;11.13;56.01
50684;BME280;36654;45.042;38.994;2022-10-14T06:07:25;101701.97;;;11.09;56.17
50684;BME280;36654;45.042;38.994;2022-10-14T06:09:51;101702.75;;;11.05;55.88
50684;BME280;36654;45.042;38.994;2022-10-14T06:12:17;101710.94;;;11.14;55.64
50684;BME280;36654;45.042;38.994;2022-10-14T06:14:42;101706.53;;;11.14;55.59
50684;BME280;36654;45.042;38.994;2022-10-14T06:17:08;101697.78;;;11.18;55.45
50684;BME280;36654;45.042;38.994;2022-10-14T06:19:33;101710.44;;;11.30;54.89
50684;BME280;36654;45.042;38.994;2022-10-14T06:21:59;101706.94;;;11.31;54.68
50684;BME280;36654;45.042;38.994;2022-10-14T06:24:25;101665.84;;;11.15;54.42
50684;BME280;36654;45.042;38.994;2022-10-14T06:26:51;101699.16;;;11.40;54.14
50684;BME280;36654;45.042;38.994;2022-10-14T06:29:17;101703.75;;;11.46;53.98
50684;BME280;36654;45.042;38.994;2022-10-14T06:31:42;101693.03;;;11.43;54.11
50684;BME280;36654;45.042;38.994;2022-10-14T06:34:08;101696.78;;;11.51;54.19
50684;BME280;36654;45.042;38.994;2022-10-14T06:36:35;101695.13;;;11.58;53.77
50684;BME280;36654;45.042;38.994;2022-10-14T06:39:01;101706.78;;;11.64;53.17
50684;BME280;36654;45.042;38.994;2022-10-14T06:41:28;101702.38;;;11.65;53.17
50684;BME280;36654;45.042;38.994;2022-10-14T06:43:54;101713.25;;;11.76;52.96
50684;BME280;36654;45.042;38.994;2022-10-14T06:46:19;101690.13;;;11.72;52.24
50684;BME280;36654;45.042;38.994;2022-10-14T06:48:45;101708.06;;;11.82;52.08
50684;BME280;36654;45.042;38.994;2022-10-14T06:51:11;101707.31;;;11.87;52.15
50684;BME280;36654;45.042;38.994;2022-10-14T06:53:36;101705.66;;;11.93;51.87
50684;BME280;36654;45.042;38.994;2022-10-14T06:56:04;101692.50;;;11.99;51.55
50684;BME280;36654;45.042;38.994;2022-10-14T06:58:31;101699.75;;;12.06;51.42
50684;BME280;36654;45.042;38.994;2022-10-14T07:01:04;101685.69;;;12.12;50.56
50684;BME280;36654;45.042;38.994;2022-10-14T07:03:33;101658.13;;;12.08;50.22
50684;BME280;36654;45.042;38.994;2022-10-14T07:06:02;101704.78;;;12.38;49.93
50684;BME280;36654;45.042;38.994;2022-10-14T07:08:29;101684.50;;;12.41;49.52
50684;BME280;36654;45.042;38.994;2022-10-14T07:10:54;101700.72;;;12.57;49.26
50684;BME280;36654;45.042;38.994;2022-10-14T07:13:20;101686.81;;;12.71;49.10
50684;BME280;36654;45.042;38.994;2022-10-14T07:15:49;101680.81;;;12.85;48.56
50684;BME280;36654;45.042;38.994;2022-10-14T07:18:16;101655.16;;;12.88;48.50
50684;BME280;36654;45.042;38.994;2022-10-14T07:20:41;101672.41;;;13.13;48.12
50684;BME280;36654;45.042;38.994;2022-10-14T07:23:07;101674.53;;;13.33;47.61
50684;BME280;36654;45.042;38.994;2022-10-14T07:25:32;101627.13;;;13.12;47.70
50684;BME280;36654;45.042;38.994;2022-10-14T07:27:58;101669.31;;;13.42;47.61
50684;BME280;36654;45.042;38.994;2022-10-14T07:30:24;101678.38;;;13.53;47.40
50684;BME280;36654;45.042;38.994;2022-10-14T07:32:50;101673.16;;;13.61;47.15
50684;BME280;36654;45.042;38.994;2022-10-14T07:35:16;101683.00;;;13.70;47.15
50684;BME280;36654;45.042;38.994;2022-10-14T07:37:44;101671.44;;;13.68;47.31
50684;BME280;36654;45.042;38.994;2022-10-14T07:40:11;101665.16;;;13.61;47.26
50684;BME280;36654;45.042;38.994;2022-10-14T07:42:37;101631.13;;;13.42;47.10
50684;BME280;36654;45.042;38.994;2022-10-14T07:45:03;101667.91;;;13.69;46.76
50684;BME280;36654;45.042;38.994;2022-10-14T07:47:29;101674.19;;;13.74;46.42
50684;BME280;36654;45.042;38.994;2022-10-14T07:49:57;101637.63;;;13.62;46.23
50684;BME280;36654;45.042;38.994;2022-10-14T07:52:22;101662.72;;;13.78;45.72
50684;BME280;36654;45.042;38.994;2022-10-14T07:54:48;101616.19;;;13.51;45.67
50684;BME280;36654;45.042;38.994;2022-10-14T07:57:13;101659.13;;;13.76;46.04
50684;BME280;36654;45.042;38.994;2022-10-14T07:59:39;101643.13;;;13.76;46.11
50684;BME280;36654;45.042;38.994;2022-10-14T08:02:05;101650.50;;;13.95;45.97
50684;BME280;36654;45.042;38.994;2022-10-14T08:04:30;101647.00;;;14.02;45.77
50684;BME280;36654;45.042;38.994;2022-10-14T08:06:56;101653.41;;;14.18;45.25
50684;BME280;36654;45.042;38.994;2022-10-14T08:09:22;101646.34;;;14.25;45.16
50684;BME280;36654;45.042;38.994;2022-10-14T08:11:47;101646.41;;;14.30;45.34
50684;BME280;36654;45.042;38.994;2022-10-14T08:14:13;101599.09;;;14.09;44.90
50684;BME280;36654;45.042;38.994;2022-10-14T08:16:39;101635.78;;;14.34;44.75
50684;BME280;36654;45.042;38.994;2022-10-14T08:19:08;101635.81;;;14.37;44.86
50684;BME280;36654;45.042;38.994;2022-10-14T08:21:33;101636.75;;;14.42;44.96
50684;BME280;36654;45.042;38.994;2022-10-14T08:23:59;101647.50;;;14.49;45.07
50684;BME280;36654;45.042;38.994;2022-10-14T08:26:34;101633.25;;;14.50;44.41
50684;BME280;36654;45.042;38.994;2022-10-14T08:29:03;101636.91;;;14.55;44.62
50684;BME280;36654;45.042;38.994;2022-10-14T08:31:29;101633.44;;;14.65;44.37
50684;BME280;36654;45.042;38.994;2022-10-14T08:33:55;101633.53;;;14.77;43.92
50684;BME280;36654;45.042;38.994;2022-10-14T08:36:21;101590.72;;;14.65;43.42
50684;BME280;36654;45.042;38.994;2022-10-14T08:38:51;101640.81;;;14.97;43.49
50684;BME280;36654;45.042;38.994;2022-10-14T08:41:42;101629.34;;;15.08;43.07
50684;BME280;36654;45.042;38.994;2022-10-14T08:44:17;101623.19;;;15.20;42.88
50684;BME280;36654;45.042;38.994;2022-10-14T08:46:45;101617.94;;;15.39;42.65
50684;BME280;36654;45.042;38.994;2022-10-14T08:52:00;101606.41;;;15.49;42.10
50684;BME280;36654;45.042;38.994;2022-10-14T08:54:49;101616.31;;;15.68;41.68
50684;BME280;36654;45.042;38.994;2022-10-14T08:57:19;101607.47;;;15.85;41.48
50684;BME280;36654;45.042;38.994;2022-10-14T08:59:46;101608.44;;;15.98;40.68
50684;BME280;36654;45.042;38.994;2022-10-14T09:02:28;101602.19;;;16.12;41.05
50684;BME280;36654;45.042;38.994;2022-10-14T09:04:57;101587.06;;;16.21;40.47
50684;BME280;36654;45.042;38.994;2022-10-14T09:07:24;101602.22;;;16.37;39.86
50684;BME280;36654;45.042;38.994;2022-10-14T09:10:06;101605.81;;;16.45;39.54
50684;BME280;36654;45.042;38.994;2022-10-14T09:12:33;101604.94;;;16.51;38.70
50684;BME280;36654;45.042;38.994;2022-10-14T09:20:21;101596.88;;;16.52;38.05
50684;BME280;36654;45.042;38.994;2022-10-14T09:25:32;101602.25;;;16.68;37.89
50684;BME280;36654;45.042;38.994;2022-10-14T09:27:58;101589.78;;;16.68;38.02
50684;BME280;36654;45.042;38.994;2022-10-14T09:30:24;101589.75;;;16.70;37.76
50684;BME280;36654;45.042;38.994;2022-10-14T09:32:52;101579.06;;;16.60;38.23
50684;BME280;36654;45.042;38.994;2022-10-14T09:35:28;101577.28;;;16.66;38.57
50684;BME280;36654;45.042;38.994;2022-10-14T09:37:55;101578.16;;;16.71;38.62
50684;BME280;36654;45.042;38.994;2022-10-14T09:40:34;101579.97;;;16.79;38.52
50684;BME280;36654;45.042;38.994;2022-10-14T09:46:01;101582.63;;;16.92;37.65
50684;BME280;36654;45.042;38.994;2022-10-14T09:48:46;101579.06;;;16.82;37.74
50684;BME280;36654;45.042;38.994;2022-10-14T09:51:19;101575.47;;;16.74;37.30
50684;BME280;36654;45.042;38.994;2022-10-14T09:53:54;101565.66;;;16.64;37.46
50684;BME280;36654;45.042;38.994;2022-10-14T09:56:34;101565.66;;;16.59;37.64
50684;BME280;36654;45.042;38.994;2022-10-14T09:59:03;101579.94;;;16.59;37.88
50684;BME280;36654;45.042;38.994;2022-10-14T10:01:38;101571.00;;;16.54;37.79
50684;BME280;36654;45.042;38.994;2022-10-14T10:06:55;101568.34;;;16.54;37.83
50684;BME280;36654;45.042;38.994;2022-10-14T10:09:21;101525.53;;;16.33;37.38
50684;BME280;36654;45.042;38.994;2022-10-14T10:11:47;101563.91;;;16.53;37.56
50684;BME280;36654;45.042;38.994;2022-10-14T10:14:32;101545.16;;;16.53;37.28
50684;BME280;36654;45.042;38.994;2022-10-14T10:19:47;101546.94;;;16.57;37.19
50684;BME280;36654;45.042;38.994;2022-10-14T10:22:28;101512.16;;;16.37;37.08
50684;BME280;36654;45.042;38.994;2022-10-14T10:27:34;101497.88;;;16.43;37.02
50684;BME280;36654;45.042;38.994;2022-10-14T10:38:29;101539.78;;;16.93;36.55
50684;BME280;36654;45.042;38.994;2022-10-14T10:53:10;101530.88;;;16.88;35.53
50684;BME280;36654;45.042;38.994;2022-10-14T11:04:32;101516.56;;;16.98;35.56
50684;BME280;36654;45.042;38.994;2022-10-14T11:07:10;101520.09;;;17.02;35.21
50684;BME280;36654;45.042;38.994;2022-10-14T11:18:27;101511.16;;;17.09;35.50
50684;BME280;36654;45.042;38.994;2022-10-14T11:23:58;101514.72;;;17.13;35.86
50684;BME280;36654;45.042;38.994;2022-10-14T11:27:00;101512.03;;;17.16;36.00
50684;BME280;36654;45.042;38.994;2022-10-14T11:29:45;101510.25;;;17.18;36.14
50684;BME280;36654;45.042;38.994;2022-10-14T11:32:27;101513.81;;;17.20;35.73
50684;BME280;36654;45.042;38.994;2022-10-14T11:40:42;101498.59;;;17.28;36.10
50684;BME280;36654;45.042;38.994;2022-10-14T11:48:23;101493.22;;;17.31;36.42
50684;BME280;36654;45.042;38.994;2022-10-14T11:50:56;101468.28;;;17.14;36.61
50684;BME280;36654;45.042;38.994;2022-10-14T11:56:24;101502.09;;;17.39;36.75
50684;BME280;36654;45.042;38.994;2022-10-14T11:58:58;101497.66;;;17.35;36.26
50684;BME280;36654;45.042;38.994;2022-10-14T12:01:27;101496.75;;;17.36;36.09
50684;BME280;36654;45.042;38.994;2022-10-14T12:06:38;101491.38;;;17.45;36.09
50684;BME280;36654;45.042;38.994;2022-10-14T12:09:40;101489.56;;;17.48;36.35
50684;BME280;36654;45.042;38.994;2022-10-14T12:12:10;101495.78;;;17.50;36.45
50684;BME280;36654;45.042;38.994;2022-10-14T12:14:40;101485.97;;;17.50;36.28
50684;BME280;36654;45.042;38.994;2022-10-14T12:17:34;101464.63;;;17.33;37.08
50684;BME280;36654;45.042;38.994;2022-10-14T12:22:45;101448.59;;;17.24;36.96
50684;BME280;36654;45.042;38.994;2022-10-14T12:25:15;101471.75;;;17.37;36.33
50684;BME280;36654;45.042;38.994;2022-10-14T12:27:42;101474.41;;;17.45;36.80
50684;BME280;36654;45.042;38.994;2022-10-14T12:30:35;101472.59;;;17.45;37.31
50684;BME280;36654;45.042;38.994;2022-10-14T12:33:09;101487.75;;;17.50;37.48
50684;BME280;36654;45.042;38.994;2022-10-14T12:35:50;101481.56;;;17.43;37.70
50684;BME280;36654;45.042;38.994;2022-10-14T12:38:18;101445.91;;;17.19;38.03
50684;BME280;36654;45.042;38.994;2022-10-14T12:40:44;101467.31;;;17.33;38.18
50684;BME280;36654;45.042;38.994;2022-10-14T12:43:24;101476.19;;;17.43;37.74
50684;BME280;36654;45.042;38.994;2022-10-14T12:46:07;101461.03;;;17.37;37.79
50684;BME280;36654;45.042;38.994;2022-10-14T12:48:36;101453.94;;;17.30;37.59
50684;BME280;36654;45.042;38.994;2022-10-14T12:51:12;101441.47;;;17.23;37.29
50684;BME280;36654;45.042;38.994;2022-10-14T12:53:48;101437.91;;;17.18;37.05
50684;BME280;36654;45.042;38.994;2022-10-14T12:56:34;101461.91;;;17.36;37.28
50684;BME280;36654;45.042;38.994;2022-10-14T12:59:02;101466.38;;;17.40;37.70
50684;BME280;36654;45.042;38.994;2022-10-14T13:01:30;101428.97;;;17.19;38.13
50684;BME280;36654;45.042;38.994;2022-10-14T13:04:15;101457.47;;;17.32;38.20
50684;BME280;36654;45.042;38.994;2022-10-14T13:06:42;101483.34;;;17.42;38.33
50684;BME280;36654;45.042;38.994;2022-10-14T13:11:45;101477.13;;;17.37;38.54
50684;BME280;36654;45.042;38.994;2022-10-14T13:14:31;101468.19;;;17.32;38.29
50684;BME280;36654;45.042;38.994;2022-10-14T13:17:10;101434.34;;;17.14;38.56
50684;BME280;36654;45.042;38.994;2022-10-14T13:19:48;101475.31;;;17.42;38.30
50684;BME280;36654;45.042;38.994;2022-10-14T13:25:16;101450.38;;;17.23;38.26
50684;BME280;36654;45.042;38.994;2022-10-14T13:27:51;101483.34;;;17.41;38.15
50684;BME280;36654;45.042;38.994;2022-10-14T13:30:32;101481.59;;;17.34;38.52
50684;BME280;36654;45.042;38.994;2022-10-14T13:33:15;101485.16;;;17.31;38.33
50684;BME280;36654;45.042;38.994;2022-10-14T13:38:17;101475.38;;;17.19;38.24
50684;BME280;36654;45.042;38.994;2022-10-14T13:40:46;101480.75;;;17.21;38.11
50684;BME280;36654;45.042;38.994;2022-10-14T13:45:50;101482.53;;;17.19;38.40
50684;BME280;36654;45.042;38.994;2022-10-14T13:48:27;101462.97;;;17.01;38.67
50684;BME280;36654;45.042;38.994;2022-10-14T13:54:33;101441.59;;;16.86;38.72
50684;BME280;36654;45.042;38.994;2022-10-14T13:56:40;101481.69;;;17.14;38.52
50684;BME280;36654;45.042;38.994;2022-10-14T13:59:20;101482.56;;;17.11;38.79
50684;BME280;36654;45.042;38.994;2022-10-14T14:01:48;101463.00;;;16.89;38.23
50684;BME280;36654;45.042;38.994;2022-10-14T14:04:24;101458.56;;;16.88;38.57
50684;BME280;36654;45.042;38.994;2022-10-14T14:06:51;101477.28;;;16.97;38.56
50684;BME280;36654;45.042;38.994;2022-10-14T14:09:24;101471.97;;;16.88;38.65
50684;BME280;36654;45.042;38.994;2022-10-14T14:11:53;101479.97;;;16.87;38.54
50684;BME280;36654;45.042;38.994;2022-10-14T14:16:58;101480.91;;;16.75;38.90
50684;BME280;36654;45.042;38.994;2022-10-14T14:21:50;101462.19;;;16.53;38.68
50684;BME280;36654;45.042;38.994;2022-10-14T14:24:25;101486.25;;;16.56;38.65
50684;BME280;36654;45.042;38.994;2022-10-14T14:26:54;101464.00;;;16.41;38.85
50684;BME280;36654;45.042;38.994;2022-10-14T14:29:25;101493.41;;;16.48;39.01
50684;BME280;36654;45.042;38.994;2022-10-14T14:31:51;101478.28;;;16.43;39.23
50684;BME280;36654;45.042;38.994;2022-10-14T14:34:18;101455.97;;;16.27;39.52
50684;BME280;36654;45.042;38.994;2022-10-14T14:36:45;101477.38;;;16.39;39.53
50684;BME280;36654;45.042;38.994;2022-10-14T14:39:22;101477.38;;;16.30;39.94
50684;BME280;36654;45.042;38.994;2022-10-14T14:41:50;101452.41;;;16.06;40.00
50684;BME280;36654;45.042;38.994;2022-10-14T14:44:19;101487.19;;;16.15;40.14
50684;BME280;36654;45.042;38.994;2022-10-14T14:46:46;101487.19;;;16.09;40.40
50684;BME280;36654;45.042;38.994;2022-10-14T14:49:17;101485.41;;;16.07;40.64
50684;BME280;36654;45.042;38.994;2022-10-14T14:51:45;101476.47;;;15.92;40.88
50684;BME280;36654;45.042;38.994;2022-10-14T14:54:16;101499.66;;;16.01;41.17
50684;BME280;36654;45.042;38.994;2022-10-14T14:56:46;101498.78;;;15.96;41.77
50684;BME280;36654;45.042;38.994;2022-10-14T14:59:40;101497.84;;;15.92;41.90
50684;BME280;36654;45.042;38.994;2022-10-14T15:02:21;101502.31;;;15.83;42.31